createdAt,value
2022-11-22T00:01:26.357Z,104.40
2022-11-22T00:03:53.726Z,100.68
2022-11-22T00:06:20.994Z,124.85
2022-11-22T00:08:48.613Z,125.25
2022-11-22T00:11:15.649Z,123.40
2022-11-22T00:13:43.035Z,116.82
2022-11-22T00:16:12.877Z,124.47
2022-11-22T00:18:40.619Z,112.43
2022-11-22T00:21:08.162Z,112.20
2022-11-22T00:23:38.311Z,117.97
2022-11-22T00:26:12.202Z,133.05
2022-11-22T00:28:42.186Z,140.20
2022-11-22T00:31:09.348Z,128.95
2022-11-22T00:33:43.701Z,129.68
2022-11-22T00:36:10.847Z,127.40
2022-11-22T00:38:38.220Z,139.63
2022-11-22T00:41:10.341Z,131.88
2022-11-22T00:43:40.309Z,153.25
2022-11-22T00:46:07.450Z,138.52
2022-11-22T00:48:36.188Z,140.30
2022-11-22T00:51:05.542Z,151.40
2022-11-22T00:53:35.033Z,159.20
2022-11-22T00:56:02.179Z,140.38
2022-11-22T00:58:29.729Z,130.32
2022-11-22T01:00:57.178Z,124.75
2022-11-22T01:03:27.177Z,112.45
2022-11-22T01:05:56.701Z,118.60
2022-11-22T01:08:26.276Z,116.00
2022-11-22T01:11:00.594Z,115.68
2022-11-22T01:13:33.315Z,108.95
2022-11-22T01:16:07.247Z,106.57
2022-11-22T01:18:35.346Z,110.55
2022-11-22T01:21:02.867Z,106.40
2022-11-22T01:23:33.885Z,108.43
2022-11-22T01:26:01.890Z,104.75
2022-11-22T01:28:31.849Z,109.45
2022-11-22T01:30:59.032Z,108.07
2022-11-22T01:33:28.642Z,95.45
2022-11-22T01:35:55.820Z,97.72
2022-11-22T01:38:23.157Z,98.15
2022-11-22T01:40:50.320Z,103.43
2022-11-22T01:43:25.420Z,106.82
2022-11-22T01:45:57.267Z,99.35
2022-11-22T01:48:34.444Z,92.90
2022-11-22T01:51:09.372Z,99.50
2022-11-22T01:53:39.837Z,85.72
2022-11-22T01:56:13.649Z,99.32
2022-11-22T01:58:43.622Z,86.60
2022-11-22T02:01:11.556Z,95.13
2022-11-22T02:03:47.401Z,97.60
2022-11-22T02:06:17.681Z,105.30
2022-11-22T02:09:00.680Z,85.63
2022-11-22T02:11:33.906Z,84.00
2022-11-22T02:14:02.565Z,79.15
2022-11-22T02:16:30.122Z,75.60
2022-11-22T02:18:57.602Z,79.43
2022-11-22T02:21:28.546Z,71.57
2022-11-22T02:24:09.714Z,80.47
2022-11-22T02:26:37.349Z,69.38
2022-11-22T02:29:07.788Z,74.70
2022-11-22T02:31:47.163Z,69.10
2022-11-22T02:34:14.954Z,79.85
2022-11-22T02:36:47.416Z,72.68
2022-11-22T02:39:20.359Z,78.72
2022-11-22T02:41:48.741Z,78.45
2022-11-22T02:44:18.036Z,81.78
2022-11-22T02:46:50.937Z,80.40
2022-11-22T02:49:24.415Z,75.15
2022-11-22T02:51:52.956Z,81.90
2022-11-22T02:54:20.869Z,84.85
2022-11-22T02:56:50.356Z,79.40
2022-11-22T02:59:20.718Z,83.13
2022-11-22T03:01:50.643Z,83.32
2022-11-22T03:04:27.010Z,80.45
2022-11-22T03:06:59.199Z,73.75
2022-11-22T03:09:27.566Z,82.95
2022-11-22T03:11:55.226Z,79.10
2022-11-22T03:14:25.725Z,91.05
2022-11-22T03:16:55.193Z,86.85
2022-11-22T03:19:25.074Z,83.97
2022-11-22T03:21:54.966Z,80.13
2022-11-22T03:24:22.359Z,81.88
2022-11-22T03:26:58.821Z,79.20
2022-11-22T03:29:26.268Z,82.75
2022-11-22T03:31:56.626Z,73.30
2022-11-22T03:34:24.041Z,71.78
2022-11-22T03:36:51.236Z,68.40
2022-11-22T03:39:25.889Z,76.40
2022-11-22T03:41:56.376Z,71.57
2022-11-22T03:44:24.013Z,78.18
2022-11-22T03:46:51.316Z,83.40
2022-11-22T03:49:18.803Z,77.30
2022-11-22T03:51:48.134Z,79.43
2022-11-22T03:54:15.665Z,64.05
2022-11-22T03:56:42.894Z,80.28
2022-11-22T03:59:10.275Z,76.22
2022-11-22T04:01:37.435Z,86.75
2022-11-22T04:04:05.390Z,84.07
2022-11-22T04:06:38.460Z,89.28
2022-11-22T04:09:06.273Z,79.15
2022-11-22T04:11:35.817Z,85.70
2022-11-22T04:14:24.690Z,89.15
2022-11-22T04:16:56.540Z,79.60
2022-11-22T04:19:23.908Z,88.07
2022-11-22T04:21:51.190Z,69.55
2022-11-22T04:24:37.152Z,79.03
2022-11-22T04:27:04.318Z,71.63
2022-11-22T04:29:33.875Z,71.53
2022-11-22T04:32:19.516Z,72.88
2022-11-22T04:34:47.215Z,73.60
2022-11-22T04:37:14.473Z,72.47
2022-11-22T04:39:44.012Z,76.05
2022-11-22T04:42:31.809Z,72.13
2022-11-22T04:44:59.156Z,73.93
2022-11-22T04:47:52.873Z,70.15
2022-11-22T04:50:41.225Z,77.43
2022-11-22T04:53:08.489Z,71.47
2022-11-22T04:55:42.941Z,76.80
2022-11-22T04:58:13.474Z,76.95
2022-11-22T05:00:43.607Z,79.63
2022-11-22T05:03:10.951Z,74.45
2022-11-22T05:05:43.077Z,78.57
2022-11-22T05:08:11.941Z,77.97
2022-11-22T05:10:57.984Z,77.43
2022-11-22T05:13:35.880Z,79.82
2022-11-22T05:16:07.607Z,81.63
2022-11-22T05:18:37.299Z,81.80
2022-11-22T05:21:10.329Z,92.85
2022-11-22T05:23:55.844Z,90.13
2022-11-22T05:26:42.079Z,81.78
2022-11-22T05:29:10.910Z,96.97
2022-11-22T05:31:40.130Z,86.93
2022-11-22T05:34:07.298Z,76.15
2022-11-22T05:36:37.664Z,86.72
2022-11-22T05:39:04.777Z,83.78
2022-11-22T05:41:34.380Z,77.32
2022-11-22T05:44:04.003Z,81.43
2022-11-22T05:46:33.380Z,84.40
2022-11-22T05:49:00.458Z,86.35
2022-11-22T05:51:34.854Z,83.75
2022-11-22T05:54:09.188Z,89.78
2022-11-22T05:56:36.766Z,83.30
2022-11-22T05:59:04.523Z,89.60
2022-11-22T06:01:34.073Z,86.97
2022-11-22T06:04:01.304Z,89.88
2022-11-22T06:06:28.649Z,85.72
2022-11-22T06:08:59.670Z,82.85
2022-11-22T06:11:28.208Z,77.33
2022-11-22T06:13:58.680Z,79.47
2022-11-22T06:16:34.536Z,76.57
2022-11-22T06:19:01.820Z,82.93
2022-11-22T06:21:29.258Z,68.70
2022-11-22T06:23:56.624Z,80.22
2022-11-22T06:26:24.692Z,72.43
2022-11-22T06:28:52.116Z,74.55
2022-11-22T06:31:25.018Z,77.45
2022-11-22T06:33:57.294Z,82.90
2022-11-22T06:38:53.582Z,86.95
2022-11-22T06:41:24.485Z,81.55
2022-11-22T06:43:53.100Z,78.18
2022-11-22T06:46:22.668Z,88.18
2022-11-22T06:48:52.428Z,92.07
2022-11-22T06:51:22.819Z,76.82
2022-11-22T06:53:55.355Z,80.50
2022-11-22T06:56:26.481Z,77.65
2022-11-22T06:58:59.085Z,80.10
2022-11-22T07:01:29.218Z,73.80
2022-11-22T07:03:58.793Z,79.30
2022-11-22T07:06:28.591Z,82.22
2022-11-22T07:09:01.601Z,81.18
2022-11-22T07:11:31.237Z,95.78
2022-11-22T07:14:05.348Z,96.75
2022-11-22T07:16:36.100Z,97.72
2022-11-22T07:19:03.457Z,82.15
2022-11-22T07:21:33.491Z,100.15
2022-11-22T07:24:00.725Z,112.45
2022-11-22T07:26:30.286Z,101.25
2022-11-22T07:28:57.330Z,114.20
2022-11-22T07:31:27.130Z,117.25
2022-11-22T07:33:57.839Z,127.72
2022-11-22T07:36:28.685Z,132.10
2022-11-22T07:38:56.463Z,116.18
2022-11-22T07:41:23.977Z,110.93
2022-11-22T07:43:54.125Z,112.32
2022-11-22T07:46:34.159Z,112.20
2022-11-22T07:49:02.629Z,93.65
2022-11-22T07:51:33.123Z,94.20
2022-11-22T07:54:07.404Z,73.63
2022-11-22T07:56:37.293Z,76.05
2022-11-22T07:59:04.393Z,83.65
2022-11-22T08:01:36.585Z,84.15
2022-11-22T08:04:04.340Z,89.30
2022-11-22T08:06:34.327Z,79.95
2022-11-22T08:09:02.411Z,78.40
2022-11-22T08:11:35.177Z,80.28
2022-11-22T08:14:07.752Z,87.00
2022-11-22T08:16:35.321Z,84.70
2022-11-22T08:19:04.687Z,83.80
2022-11-22T08:21:32.034Z,86.15
2022-11-22T08:23:59.307Z,96.63
2022-11-22T08:26:26.822Z,83.82
2022-11-22T08:28:56.462Z,84.68
2022-11-22T08:31:26.161Z,79.43
2022-11-22T08:33:55.785Z,81.57
2022-11-22T08:36:28.063Z,82.28
2022-11-22T08:38:58.505Z,81.05
2022-11-22T08:41:28.360Z,79.55
2022-11-22T08:43:58.615Z,88.05
2022-11-22T08:46:29.589Z,77.57
2022-11-22T08:48:56.774Z,81.30
2022-11-22T08:51:26.712Z,87.75
2022-11-22T08:53:56.508Z,80.75
2022-11-22T08:56:26.018Z,83.28
2022-11-22T08:58:54.493Z,92.28
2022-11-22T09:01:24.324Z,76.80
2022-11-22T09:03:51.472Z,76.60
2022-11-22T09:12:04.276Z,64.95
2022-11-22T09:14:31.442Z,61.08
2022-11-22T09:16:59.259Z,64.97
2022-11-22T09:19:26.493Z,64.43
2022-11-22T09:21:56.489Z,65.32
2022-11-22T09:24:28.436Z,72.53
2022-11-22T09:29:28.233Z,78.53
2022-11-22T09:31:56.136Z,89.68
2022-11-22T09:34:28.527Z,100.75
2022-11-22T09:36:58.376Z,87.43
2022-11-22T09:39:25.435Z,73.78
2022-11-22T09:42:20.589Z,75.68
2022-11-22T09:45:08.189Z,66.90
2022-11-22T09:47:57.361Z,64.97
2022-11-22T09:50:55.400Z,62.10
2022-11-22T09:53:37.942Z,69.50
2022-11-22T09:56:14.432Z,65.82
2022-11-22T09:59:22.668Z,67.65
2022-11-22T10:02:18.712Z,68.68
2022-11-22T10:04:57.314Z,75.32
2022-11-22T10:07:36.612Z,66.07
2022-11-22T10:10:25.032Z,64.28
2022-11-22T10:13:05.696Z,69.18
2022-11-22T10:15:57.013Z,70.25
2022-11-22T10:18:45.446Z,62.42
2022-11-22T10:21:14.621Z,65.28
2022-11-22T10:23:43.366Z,68.28
2022-11-22T10:26:29.446Z,72.38
2022-11-22T10:29:10.482Z,63.47
2022-11-22T10:31:43.688Z,61.65
2022-11-22T10:34:53.248Z,61.97
2022-11-22T10:37:35.994Z,70.53
2022-11-22T10:40:26.024Z,71.45
2022-11-22T10:43:08.440Z,68.68
2022-11-22T10:45:58.418Z,68.45
2022-11-22T10:48:56.048Z,68.72
2022-11-22T10:51:55.439Z,67.20
2022-11-22T10:54:56.470Z,66.27
2022-11-22T10:57:37.716Z,69.00
2022-11-22T11:00:25.634Z,64.90
2022-11-22T11:03:14.602Z,70.63
2022-11-22T11:06:21.767Z,75.25
2022-11-22T11:09:47.652Z,77.65
2022-11-22T11:11:44.853Z,74.05
2022-11-22T11:14:34.315Z,74.20
2022-11-22T11:17:03.408Z,83.53
2022-11-22T11:19:40.127Z,73.90
2022-11-22T11:22:09.833Z,68.57
2022-11-22T11:24:40.679Z,78.40
2022-11-22T11:27:16.477Z,73.85
2022-11-22T11:29:47.850Z,78.07
2022-11-22T11:32:22.041Z,89.57
2022-11-22T11:34:57.615Z,69.85
2022-11-22T11:37:34.768Z,77.22
2022-11-22T11:40:06.814Z,70.13
2022-11-22T11:42:39.785Z,75.47
2022-11-22T11:45:33.083Z,76.70
2022-11-22T11:48:00.453Z,74.53
2022-11-22T11:50:35.218Z,73.10
2022-11-22T11:53:15.380Z,77.10
2022-11-22T11:55:42.889Z,72.28
2022-11-22T11:58:21.992Z,77.47
2022-11-22T12:00:50.125Z,77.25
2022-11-22T12:03:22.409Z,76.10
2022-11-22T12:06:13.421Z,77.30
2022-11-22T12:08:47.951Z,65.50
2022-11-22T12:11:24.154Z,71.45
2022-11-22T12:16:50.395Z,79.55
2022-11-22T12:19:51.505Z,73.05
2022-11-22T12:22:48.896Z,73.47
2022-11-22T12:25:36.100Z,74.93
2022-11-22T12:28:27.487Z,75.35
2022-11-22T12:31:14.790Z,82.05
2022-11-22T12:33:45.820Z,77.93
2022-11-22T12:36:20.929Z,74.88
2022-11-22T12:38:53.081Z,82.22
2022-11-22T12:43:55.551Z,68.90
2022-11-22T12:46:41.256Z,64.25
2022-11-22T12:49:25.362Z,71.32
2022-11-22T12:52:15.376Z,71.25
2022-11-22T12:55:05.728Z,64.78
2022-11-22T12:57:41.196Z,78.45
2022-11-22T13:00:22.852Z,74.20
2022-11-22T13:03:03.657Z,78.85
2022-11-22T13:05:49.228Z,68.63
2022-11-22T13:08:53.987Z,69.90
2022-11-22T13:11:35.020Z,80.25
2022-11-22T13:14:12.470Z,81.85
2022-11-22T13:16:45.294Z,78.70
2022-11-22T13:19:19.643Z,64.97
2022-11-22T13:22:16.202Z,64.15
2022-11-22T13:25:28.763Z,64.25
2022-11-22T13:27:59.566Z,60.30
2022-11-22T13:30:31.070Z,61.53
2022-11-22T13:33:00.855Z,74.60
2022-11-22T13:35:35.640Z,77.50
2022-11-22T13:38:11.596Z,69.57
2022-11-22T13:40:45.023Z,70.57
2022-11-22T13:43:21.991Z,71.85
2022-11-22T13:45:58.303Z,85.75
2022-11-22T13:48:40.090Z,74.22
2022-11-22T13:51:14.772Z,68.15
2022-11-22T13:53:44.482Z,58.17
2022-11-22T13:56:21.080Z,50.67
2022-11-22T13:58:51.029Z,71.95
2022-11-22T14:01:36.788Z,68.85
2022-11-22T14:04:21.323Z,70.93
2022-11-22T14:07:10.455Z,72.63
2022-11-22T14:09:54.051Z,78.18
2022-11-22T14:12:52.159Z,93.97
2022-11-22T14:15:29.625Z,81.40
2022-11-22T14:18:19.921Z,64.30
2022-11-22T14:21:27.058Z,63.80
2022-11-22T14:24:09.315Z,53.75
2022-11-22T14:27:13.838Z,56.05
2022-11-22T14:29:55.805Z,71.72
2022-11-22T14:32:41.915Z,65.85
2022-11-22T14:35:24.783Z,67.07
2022-11-22T14:38:01.068Z,78.78
2022-11-22T14:40:44.900Z,77.95
2022-11-22T14:43:12.244Z,85.93
2022-11-22T14:46:01.334Z,65.93
2022-11-22T14:48:37.529Z,67.38
2022-11-22T14:51:07.076Z,75.65
2022-11-22T14:54:00.948Z,68.90
2022-11-22T14:56:36.851Z,79.38
2022-11-22T14:59:31.575Z,82.07
2022-11-22T15:02:05.179Z,104.45
2022-11-22T15:09:14.564Z,89.05
2022-11-22T15:09:17.681Z,86.95
2022-11-22T15:11:35.495Z,103.25
2022-11-22T15:14:14.893Z,93.40
2022-11-22T15:59:43.304Z,91.60
2022-11-22T16:02:21.231Z,97.47
2022-11-22T16:06:03.607Z,82.10
2022-11-22T16:07:51.225Z,85.28
2022-11-22T16:10:33.515Z,99.15
2022-11-22T16:13:13.270Z,89.53
2022-11-22T16:15:40.797Z,86.60
2022-11-22T16:18:27.126Z,89.18
2022-11-22T16:21:00.535Z,90.85
2022-11-22T16:23:37.306Z,101.57
2022-11-22T16:26:24.661Z,89.95
2022-11-22T16:28:54.336Z,89.50
2022-11-22T16:31:30.421Z,89.45
2022-11-22T16:33:58.445Z,92.75
2022-11-22T16:36:29.982Z,101.22
2022-11-22T16:38:59.637Z,98.82
2022-11-22T16:41:30.021Z,101.53
2022-11-22T16:44:11.340Z,96.57
2022-11-22T16:46:41.368Z,90.72
2022-11-22T16:49:22.764Z,98.80
2022-11-22T16:54:23.794Z,92.05
2022-11-22T16:56:51.394Z,94.55
2022-11-22T16:59:23.209Z,88.57
2022-11-22T17:01:50.566Z,122.63
2022-11-22T17:04:27.628Z,104.28
2022-11-22T17:06:55.259Z,101.93
2022-11-22T17:09:27.320Z,98.85
2022-11-22T17:11:54.864Z,112.03
2022-11-22T17:14:24.229Z,121.78
2022-11-22T17:16:54.091Z,101.75
2022-11-22T17:22:17.341Z,106.60
2022-11-22T17:24:45.169Z,105.45
2022-11-22T17:27:14.123Z,107.15
2022-11-22T17:29:50.188Z,108.50
2022-11-22T17:32:19.924Z,101.82
2022-11-22T17:34:47.173Z,104.38
2022-11-22T17:37:15.285Z,103.38
2022-11-22T17:39:45.045Z,113.82
2022-11-22T17:42:12.451Z,96.07
2022-11-22T17:44:44.622Z,106.15
2022-11-22T17:47:16.868Z,111.78
2022-11-22T17:49:47.011Z,109.63
2022-11-22T17:52:19.517Z,106.88
2022-11-22T17:54:49.059Z,111.70
2022-11-22T17:57:17.143Z,117.35
2022-11-22T17:59:44.944Z,104.68
2022-11-22T18:02:14.605Z,92.28
2022-11-22T18:04:44.614Z,86.65
2022-11-22T18:07:12.266Z,102.80
2022-11-22T18:09:39.385Z,93.40
2022-11-22T18:12:06.922Z,91.10
2022-11-22T18:14:34.644Z,100.20
2022-11-22T18:17:04.198Z,97.95
2022-11-22T18:19:34.193Z,97.93
2022-11-22T18:22:01.888Z,103.28
2022-11-22T18:24:29.055Z,89.65
2022-11-22T18:26:56.631Z,91.82
2022-11-22T18:29:42.791Z,89.85
2022-11-22T18:32:11.597Z,91.97
2022-11-22T18:34:39.038Z,96.28
2022-11-22T18:37:08.833Z,85.70
2022-11-22T18:39:39.056Z,85.80
2022-11-22T18:42:10.232Z,87.82
2022-11-22T18:44:37.946Z,96.28
2022-11-22T18:47:07.929Z,91.30
2022-11-22T18:49:35.551Z,88.63
2022-11-22T18:52:03.676Z,89.80
2022-11-22T18:54:31.233Z,86.18
2022-11-22T18:56:59.082Z,90.88
2022-11-22T18:59:26.318Z,83.68
2022-11-22T19:01:56.112Z,88.82
2022-11-22T19:04:26.293Z,91.03
2022-11-22T19:06:56.457Z,83.55
2022-11-22T19:09:23.825Z,90.05
2022-11-22T19:11:58.420Z,92.38
2022-11-22T19:14:31.153Z,121.25
2022-11-22T19:17:06.029Z,91.78
2022-11-22T19:19:33.590Z,81.05
2022-11-22T19:22:10.842Z,80.88
2022-11-22T19:24:38.395Z,86.95
2022-11-22T19:27:08.352Z,80.35
2022-11-22T19:29:36.438Z,87.75
2022-11-22T19:32:06.414Z,79.68
2022-11-22T19:34:35.873Z,85.28
2022-11-22T19:37:03.635Z,86.85
2022-11-22T19:39:33.302Z,82.60
2022-11-22T19:42:04.109Z,85.28
2022-11-22T19:44:38.846Z,77.15
2022-11-22T19:47:09.271Z,78.60
2022-11-22T19:49:36.466Z,91.78
2022-11-22T19:52:07.169Z,96.70
2022-11-22T19:54:37.103Z,97.68
2022-11-22T19:57:04.580Z,91.47
2022-11-22T19:59:34.300Z,84.78
2022-11-22T20:02:02.278Z,85.20
2022-11-22T20:04:35.423Z,91.63
2022-11-22T20:07:05.954Z,87.20
2022-11-22T20:09:37.189Z,90.07
2022-11-22T20:12:07.303Z,80.28
2022-11-22T20:14:36.869Z,88.65
2022-11-22T20:17:07.502Z,92.10
2022-11-22T20:19:35.287Z,82.15
2022-11-22T20:22:05.379Z,85.07
2022-11-22T20:24:33.048Z,90.85
2022-11-22T20:27:02.554Z,83.63
2022-11-22T20:29:29.931Z,83.75
2022-11-22T20:32:01.740Z,85.50
2022-11-22T20:34:33.469Z,73.20
2022-11-22T20:37:03.678Z,77.47
2022-11-22T20:39:35.490Z,77.78
2022-11-22T20:42:32.496Z,86.65
2022-11-22T20:44:51.782Z,94.05
2022-11-22T20:47:19.193Z,84.75
2022-11-22T20:49:50.888Z,81.25
2022-11-22T20:52:18.614Z,80.80
2022-11-22T20:54:45.847Z,93.05
2022-11-22T20:57:13.435Z,72.80
2022-11-22T20:59:40.758Z,84.95
2022-11-22T21:02:13.071Z,80.82
2022-11-22T21:04:42.839Z,83.38
2022-11-22T21:07:15.907Z,65.25
2022-11-22T21:09:43.109Z,77.50
2022-11-22T21:12:13.486Z,70.00
2022-11-22T21:14:41.563Z,69.35
2022-11-22T21:17:39.391Z,70.65
2022-11-22T21:20:04.021Z,68.15
2022-11-22T21:22:36.452Z,63.42
2022-11-22T21:25:04.243Z,67.03
2022-11-22T21:27:32.016Z,62.92
2022-11-22T21:29:59.489Z,68.60
2022-11-22T21:32:36.926Z,70.80
2022-11-22T21:35:13.498Z,71.93
2022-11-22T21:37:42.496Z,61.72
2022-11-22T21:40:14.537Z,71.22
2022-11-22T21:45:17.677Z,69.57
2022-11-22T21:47:48.281Z,69.50
2022-11-22T21:50:16.024Z,72.15
2022-11-22T21:52:44.061Z,68.35
2022-11-22T21:55:15.392Z,71.88
2022-11-22T21:57:46.105Z,75.55
2022-11-22T22:00:18.449Z,69.13
2022-11-22T22:02:49.283Z,75.18
2022-11-22T22:05:17.724Z,71.07
2022-11-22T22:08:03.297Z,67.90
2022-11-22T22:10:33.722Z,71.80
2022-11-22T22:13:01.436Z,73.60
2022-11-22T22:15:34.306Z,67.38
2022-11-22T22:18:03.728Z,75.65
2022-11-22T22:20:35.465Z,68.75
2022-11-22T22:23:05.920Z,67.10
2022-11-22T22:25:33.777Z,72.50
2022-11-22T22:28:01.320Z,71.80
2022-11-22T22:30:31.799Z,74.53
2022-11-22T22:33:03.960Z,72.47
2022-11-22T22:35:47.563Z,78.10
2022-11-22T22:38:15.973Z,68.93
2022-11-22T22:40:44.189Z,70.97
2022-11-22T22:43:12.284Z,75.05
2022-11-22T22:45:39.705Z,75.75
2022-11-22T22:48:09.543Z,80.88
2022-11-22T22:50:39.174Z,73.13
2022-11-22T22:53:09.181Z,81.95
2022-11-22T22:55:38.837Z,78.00
2022-11-22T22:58:07.704Z,79.07
2022-11-22T23:00:40.077Z,75.95
2022-11-22T23:03:09.738Z,71.45
2022-11-22T23:05:43.102Z,77.30
2022-11-22T23:08:13.139Z,75.22
2022-11-22T23:10:42.100Z,77.07
2022-11-22T23:13:13.639Z,81.53
2022-11-22T23:15:57.306Z,83.68
2022-11-22T23:18:29.386Z,79.88
2022-11-22T23:21:00.864Z,73.25
2022-11-22T23:23:29.698Z,74.93
2022-11-22T23:26:11.053Z,76.63
2022-11-22T23:28:41.065Z,71.55
2022-11-22T23:31:11.353Z,83.10
2022-11-22T23:33:39.139Z,73.88
2022-11-22T23:36:11.534Z,69.40
2022-11-22T23:38:42.587Z,71.95
2022-11-22T23:41:14.030Z,74.68
2022-11-22T23:43:42.478Z,72.63
2022-11-22T23:46:17.953Z,72.13
2022-11-22T23:48:50.532Z,77.22
2022-11-22T23:51:17.601Z,80.07
2022-11-22T23:53:45.257Z,80.75
2022-11-22T23:56:21.553Z,72.53
2022-11-22T23:58:52.607Z,69.35
